Time;durP1;ratioP1;P1;durP2;ratioP2;P2;SDS_P1;SDS_P2;PMS_P1;PMS_P2;Temp;Humidity;BMP_temperature;BMP_pressure;BME280_temperature;BME280_humidity;BME280_pressure;Samples;Min_cycle;Max_cycle;Signal;HPM_P1;HPM_P2
2023/08/10 00:00:16;;;;;;;4.60;1.10;;;14.30;99.90;;;;;;5073597;28;20048;-59
2023/08/10 00:02:45;;;;;;;2.03;1.00;;;14.30;99.90;;;;;;5072838;28;20489;-59
2023/08/10 00:05:11;;;;;;;1.13;0.63;;;14.20;99.90;;;;;;5072475;28;20094;-59
2023/08/10 00:07:37;;;;;;;1.90;0.65;;;14.20;99.90;;;;;;5073430;28;20367;-59
2023/08/10 00:10:04;;;;;;;2.22;1.10;;;14.10;99.90;;;;;;5071786;28;20052;-59
2023/08/10 00:12:30;;;;;;;1.83;0.80;;;14.00;99.90;;;;;;5055233;28;20040;-59
2023/08/10 00:14:56;;;;;;;1.35;0.70;;;14.00;99.90;;;;;;5073439;28;20507;-59
2023/08/10 00:17:23;;;;;;;4.63;1.50;;;14.00;99.90;;;;;;5070182;28;20041;-59
2023/08/10 00:19:49;;;;;;;1.70;0.95;;;13.90;99.90;;;;;;5072168;28;20040;-59
2023/08/10 00:22:15;;;;;;;1.92;1.15;;;13.90;99.90;;;;;;5072035;28;20056;-60
2023/08/10 00:24:41;;;;;;;4.75;0.98;;;13.90;99.90;;;;;;5070700;28;20051;-59
2023/08/10 00:27:06;;;;;;;5.35;1.23;;;13.80;99.90;;;;;;5072227;28;20048;-59
2023/08/10 00:29:33;;;;;;;1.33;0.73;;;13.80;99.90;;;;;;5071710;28;20041;-60
2023/08/10 00:31:59;;;;;;;1.95;0.75;;;13.80;99.90;;;;;;5071350;28;20052;-59
2023/08/10 00:34:24;;;;;;;2.08;0.88;;;13.70;99.90;;;;;;5073235;28;20427;-59
2023/08/10 00:36:50;;;;;;;1.25;0.88;;;13.70;99.90;;;;;;5073101;28;20032;-59
2023/08/10 00:39:17;;;;;;;1.80;0.88;;;13.60;99.90;;;;;;5071178;28;20044;-59
2023/08/10 00:41:43;;;;;;;1.27;0.55;;;13.60;99.90;;;;;;5071913;28;20385;-59
2023/08/10 00:44:09;;;;;;;2.33;0.98;;;13.50;99.90;;;;;;5072649;28;20405;-59
2023/08/10 00:46:35;;;;;;;1.27;0.73;;;13.50;99.90;;;;;;5076339;28;20055;-60
2023/08/10 00:49:02;;;;;;;1.80;0.68;;;13.50;99.90;;;;;;5093525;28;20066;-59
2023/08/10 00:51:28;;;;;;;3.83;0.88;;;13.50;99.90;;;;;;5074224;28;20435;-59
2023/08/10 00:53:54;;;;;;;9.13;0.88;;;13.50;99.90;;;;;;5074972;28;20085;-59
2023/08/10 00:56:20;;;;;;;1.95;0.63;;;13.40;99.90;;;;;;5074613;28;20040;-59
2023/08/10 00:58:46;;;;;;;1.38;0.50;;;13.40;99.90;;;;;;5073855;28;20523;-59
2023/08/10 01:01:12;;;;;;;1.73;0.88;;;13.30;99.90;;;;;;5074731;28;20553;-59
2023/08/10 01:03:38;;;;;;;1.90;0.95;;;13.30;99.90;;;;;;5092810;28;20115;-59
2023/08/10 01:06:10;;;;;;;1.80;0.98;;;13.20;99.90;;;;;;5074398;28;20233;-59
2023/08/10 01:08:43;;;;;;;1.02;0.63;;;13.20;99.90;;;;;;5092570;28;20450;-59
2023/08/10 01:11:33;;;;;;;0.85;0.55;;;13.20;99.90;;;;;;5092173;28;20032;-59
2023/08/10 01:14:05;;;;;;;2.20;0.85;;;13.20;99.90;;;;;;5074175;28;20055;-59
2023/08/10 01:16:33;;;;;;;1.70;0.70;;;13.10;99.90;;;;;;5074404;28;20048;-59
2023/08/10 01:18:59;;;;;;;1.58;0.80;;;13.00;99.90;;;;;;5074393;28;20036;-59
2023/08/10 01:22:02;;;;;;;2.55;1.38;;;13.00;99.90;;;;;;5091626;28;20496;-59
2023/08/10 01:24:35;;;;;;;1.27;0.70;;;13.00;99.90;;;;;;5082158;28;20531;-59
2023/08/10 01:27:02;;;;;;;1.35;0.50;;;13.00;99.90;;;;;;5057103;28;20503;-59
2023/08/10 01:29:28;;;;;;;1.25;0.57;;;13.00;99.90;;;;;;5073432;28;20496;-59
2023/08/10 01:31:54;;;;;;;2.90;0.90;;;13.00;99.90;;;;;;5092450;28;20051;-59
2023/08/10 01:34:19;;;;;;;1.98;0.95;;;12.90;99.90;;;;;;5073515;28;20035;-60
2023/08/10 01:36:45;;;;;;;2.75;1.13;;;12.90;99.90;;;;;;5092487;28;20153;-59
2023/08/10 01:39:11;;;;;;;3.97;1.27;;;12.80;99.90;;;;;;5074185;28;20036;-59
2023/08/10 01:41:36;;;;;;;0.98;0.60;;;12.80;99.90;;;;;;5073413;28;20051;-59
2023/08/10 01:44:03;;;;;;;2.20;0.88;;;12.80;99.90;;;;;;5074303;28;20119;-59
2023/08/10 01:46:32;;;;;;;2.13;0.98;;;12.70;99.90;;;;;;5073709;28;20382;-60
2023/08/10 01:49:00;;;;;;;1.85;0.80;;;12.70;99.90;;;;;;5073555;28;20481;-59
2023/08/10 01:51:27;;;;;;;2.15;0.80;;;12.70;99.90;;;;;;5074164;28;20435;-59
2023/08/10 01:53:55;;;;;;;2.08;1.15;;;12.70;99.90;;;;;;5074468;28;20366;-59
2023/08/10 01:56:21;;;;;;;1.05;0.60;;;12.70;99.90;;;;;;5091260;28;20036;-59
2023/08/10 01:58:47;;;;;;;4.50;0.90;;;12.60;99.90;;;;;;5074138;28;20150;-59
2023/08/10 02:01:13;;;;;;;1.17;0.57;;;12.60;99.90;;;;;;5073940;28;20124;-59
2023/08/10 02:03:39;;;;;;;1.02;0.52;;;12.60;99.90;;;;;;5073526;28;20043;-59
2023/08/10 02:06:05;;;;;;;2.70;0.90;;;12.60;99.90;;;;;;5074030;28;20040;-59
2023/08/10 02:08:31;;;;;;;1.83;0.70;;;12.70;99.90;;;;;;5073894;28;20085;-59
2023/08/10 02:10:57;;;;;;;1.92;1.00;;;12.70;99.90;;;;;;5091311;28;20036;-59
2023/08/10 02:13:23;;;;;;;1.67;0.85;;;12.70;99.90;;;;;;5073775;28;20044;-59
2023/08/10 02:15:50;;;;;;;1.65;1.00;;;12.70;99.90;;;;;;5091718;28;20040;-59
2023/08/10 02:18:15;;;;;;;1.02;0.70;;;12.70;99.90;;;;;;5090920;28;20068;-59
2023/08/10 02:20:41;;;;;;;2.85;1.05;;;12.70;99.90;;;;;;5073560;28;20079;-59
2023/08/10 02:23:07;;;;;;;1.90;0.90;;;12.70;99.90;;;;;;5072919;28;20382;-59
2023/08/10 02:25:32;;;;;;;1.45;0.60;;;12.60;99.90;;;;;;5073647;28;20044;-59
2023/08/10 02:27:58;;;;;;;2.35;1.10;;;12.60;99.90;;;;;;5073954;28;20063;-59
2023/08/10 02:30:24;;;;;;;2.17;1.02;;;12.60;99.90;;;;;;5073040;28;20043;-59
2023/08/10 02:32:50;;;;;;;3.00;1.45;;;12.70;99.90;;;;;;5073502;28;20040;-59
2023/08/10 02:35:15;;;;;;;2.72;0.95;;;12.70;99.90;;;;;;5073645;28;20058;-59
2023/08/10 02:37:41;;;;;;;2.78;0.98;;;12.70;99.90;;;;;;5072969;28;20028;-59
2023/08/10 02:40:09;;;;;;;2.35;0.93;;;12.70;99.90;;;;;;5073863;28;20051;-59
2023/08/10 02:42:34;;;;;;;6.47;1.23;;;12.70;99.90;;;;;;5077529;28;20052;-59
2023/08/10 02:45:00;;;;;;;0.85;0.60;;;12.70;99.90;;;;;;5077362;28;20101;-59
2023/08/10 02:47:26;;;;;;;2.13;1.15;;;12.80;99.90;;;;;;5077050;28;20059;-59
2023/08/10 02:49:52;;;;;;;2.10;1.08;;;12.80;99.90;;;;;;5095389;28;20050;-59
2023/08/10 02:52:18;;;;;;;1.98;0.70;;;12.80;99.90;;;;;;5076215;28;20036;-59
2023/08/10 02:54:43;;;;;;;1.58;0.70;;;12.90;99.90;;;;;;5076942;28;20039;-59
2023/08/10 02:57:09;;;;;;;1.63;0.93;;;12.90;99.90;;;;;;5076928;28;20036;-59
2023/08/10 02:59:34;;;;;;;1.95;0.88;;;12.90;99.90;;;;;;5076062;28;20063;-59
2023/08/10 03:02:02;;;;;;;2.60;1.10;;;12.90;99.90;;;;;;5077307;28;20044;-59
2023/08/10 03:04:28;;;;;;;1.23;0.82;;;13.00;99.90;;;;;;5076785;28;20044;-59
2023/08/10 03:06:54;;;;;;;2.53;1.23;;;13.00;99.90;;;;;;5076205;28;20040;-59
2023/08/10 03:09:20;;;;;;;1.63;0.80;;;13.10;99.90;;;;;;5094956;28;20047;-59
2023/08/10 03:11:46;;;;;;;3.80;0.93;;;13.10;99.90;;;;;;5076661;28;20052;-59
2023/08/10 03:14:12;;;;;;;4.45;1.00;;;13.10;99.90;;;;;;5094104;28;20048;-59
2023/08/10 03:16:38;;;;;;;0.68;0.40;;;13.10;99.90;;;;;;5076846;28;20480;-59
2023/08/10 03:19:03;;;;;;;1.67;0.60;;;13.20;99.90;;;;;;5060383;28;20043;-59
2023/08/10 03:21:29;;;;;;;2.80;1.02;;;13.20;99.90;;;;;;5093731;28;20040;-59
2023/08/10 03:23:55;;;;;;;1.95;1.00;;;13.20;99.90;;;;;;5077095;28;20044;-59
2023/08/10 03:26:21;;;;;;;2.35;1.00;;;13.20;99.90;;;;;;5076004;28;20510;-59
2023/08/10 03:28:47;;;;;;;2.03;0.90;;;13.20;99.90;;;;;;5094426;28;20118;-59
2023/08/10 03:31:13;;;;;;;3.17;1.10;;;13.20;99.90;;;;;;5094398;28;20040;-59
2023/08/10 03:33:39;;;;;;;3.25;1.58;;;13.30;99.90;;;;;;5075841;28;20376;-59
2023/08/10 03:36:05;;;;;;;2.42;1.42;;;13.30;99.90;;;;;;5059963;28;20076;-59
2023/08/10 03:38:31;;;;;;;0.85;0.70;;;13.30;99.90;;;;;;5094073;28;20105;-59
2023/08/10 03:40:56;;;;;;;6.47;1.17;;;13.30;99.90;;;;;;5093788;28;20438;-59
2023/08/10 03:43:22;;;;;;;1.25;0.88;;;13.30;99.90;;;;;;5076191;28;20498;-59
2023/08/10 03:45:48;;;;;;;1.98;1.10;;;13.30;99.90;;;;;;5059405;28;20043;-59
2023/08/10 03:48:14;;;;;;;2.67;1.17;;;13.30;99.90;;;;;;5093267;28;20064;-59
2023/08/10 03:50:39;;;;;;;2.30;1.05;;;13.30;99.90;;;;;;5094152;28;20040;-59
2023/08/10 03:53:06;;;;;;;2.65;1.23;;;13.30;99.90;;;;;;5093846;28;20044;-59
2023/08/10 03:55:32;;;;;;;1.85;1.10;;;13.30;99.90;;;;;;5075306;28;20477;-59
2023/08/10 03:57:57;;;;;;;1.77;1.20;;;13.30;99.90;;;;;;5059753;28;20036;-59
2023/08/10 04:00:24;;;;;;;1.33;0.52;;;13.40;99.90;;;;;;5093896;28;20032;-59
2023/08/10 04:02:49;;;;;;;1.90;0.80;;;13.40;99.90;;;;;;5075078;28;20052;-59
2023/08/10 04:05:15;;;;;;;6.40;1.67;;;13.40;99.90;;;;;;5075638;28;20044;-59
2023/08/10 04:07:41;;;;;;;2.03;0.77;;;13.40;99.90;;;;;;5075867;28;20036;-59
2023/08/10 04:10:07;;;;;;;1.58;0.95;;;13.40;99.90;;;;;;5074828;28;20089;-60
2023/08/10 04:12:34;;;;;;;2.22;0.95;;;13.40;99.90;;;;;;5076018;28;20079;-59
2023/08/10 04:15:01;;;;;;;3.83;1.17;;;13.40;99.90;;;;;;5094073;28;20047;-59
2023/08/10 04:17:26;;;;;;;1.73;0.95;;;13.40;99.90;;;;;;5058116;28;20036;-59
2023/08/10 04:19:52;;;;;;;1.75;1.02;;;13.40;99.90;;;;;;5075590;28;20046;-59
2023/08/10 04:22:18;;;;;;;3.22;1.27;;;13.40;99.90;;;;;;5075610;28;20089;-59
2023/08/10 04:24:44;;;;;;;2.75;0.80;;;13.40;99.90;;;;;;5092829;28;20040;-59
2023/08/10 04:27:10;;;;;;;1.88;0.80;;;13.40;99.90;;;;;;5093534;28;20077;-59
2023/08/10 04:29:36;;;;;;;2.92;0.80;;;13.50;99.90;;;;;;5092861;28;20036;-60
2023/08/10 04:32:02;;;;;;;1.98;0.95;;;13.40;99.90;;;;;;5075579;28;20484;-59
2023/08/10 04:34:28;;;;;;;1.80;0.85;;;13.50;99.90;;;;;;5092974;28;20047;-59
2023/08/10 04:36:53;;;;;;;3.70;1.40;;;13.50;99.90;;;;;;5074831;28;20568;-59
2023/08/10 04:39:19;;;;;;;1.15;0.60;;;13.50;99.90;;;;;;5093175;28;20042;-59
2023/08/10 04:41:45;;;;;;;2.88;1.40;;;13.50;99.90;;;;;;5093387;28;20062;-59
2023/08/10 04:44:10;;;;;;;1.25;0.77;;;13.50;99.90;;;;;;5074217;28;20096;-59
2023/08/10 04:46:36;;;;;;;1.73;0.93;;;13.60;99.90;;;;;;5092991;28;20066;-59
2023/08/10 04:49:02;;;;;;;4.25;1.17;;;13.60;99.90;;;;;;5092906;28;20476;-60
2023/08/10 04:51:27;;;;;;;4.07;1.17;;;13.60;99.90;;;;;;5073958;28;20071;-59
2023/08/10 04:53:53;;;;;;;3.22;1.08;;;13.60;99.90;;;;;;5093282;28;20043;-59
2023/08/10 04:56:19;;;;;;;4.50;1.20;;;13.70;99.90;;;;;;5074793;28;20128;-59
2023/08/10 04:58:44;;;;;;;2.15;0.95;;;13.80;99.90;;;;;;5073950;28;20134;-59
2023/08/10 05:01:13;;;;;;;3.28;1.23;;;13.80;99.90;;;;;;5092693;28;20039;-60
2023/08/10 05:03:39;;;;;;;4.78;1.52;;;13.80;99.90;;;;;;5092066;28;20485;-59
2023/08/10 05:06:05;;;;;;;2.97;1.00;;;13.90;99.90;;;;;;5074006;28;20118;-59
2023/08/10 05:08:31;;;;;;;3.00;1.75;;;13.90;99.90;;;;;;5074744;28;20119;-59
2023/08/10 05:10:58;;;;;;;2.50;1.45;;;13.90;99.90;;;;;;5074652;28;20053;-59
2023/08/10 05:13:24;;;;;;;4.32;0.98;;;14.00;99.90;;;;;;5073642;28;20047;-59
2023/08/10 05:15:50;;;;;;;2.17;0.88;;;14.00;99.90;;;;;;5074396;28;20035;-59
2023/08/10 05:18:20;;;;;;;2.03;0.88;;;14.10;99.90;;;;;;5092517;28;20039;-59
2023/08/10 05:20:46;;;;;;;1.70;1.00;;;14.10;99.90;;;;;;5073547;28;20449;-60
2023/08/10 05:23:11;;;;;;;1.88;1.02;;;14.10;99.90;;;;;;5092347;28;20071;-59
2023/08/10 05:25:37;;;;;;;3.08;1.30;;;14.20;99.90;;;;;;5074664;28;20090;-59
2023/08/10 05:28:03;;;;;;;3.55;1.52;;;14.20;99.90;;;;;;5091894;28;20032;-59
2023/08/10 05:30:29;;;;;;;2.72;1.17;;;14.30;99.90;;;;;;5073633;28;20040;-59
2023/08/10 05:32:55;;;;;;;4.68;2.05;;;14.30;99.90;;;;;;5073545;28;20070;-59
2023/08/10 05:35:21;;;;;;;3.00;1.27;;;14.40;99.90;;;;;;5092220;28;20102;-59
2023/08/10 05:37:47;;;;;;;2.03;1.10;;;14.50;99.90;;;;;;5092036;28;20032;-60
2023/08/10 05:40:12;;;;;;;3.05;1.40;;;14.50;99.90;;;;;;5091215;28;20446;-59
2023/08/10 05:42:40;;;;;;;1.98;1.25;;;14.60;99.90;;;;;;5074082;28;20516;-59
2023/08/10 05:45:06;;;;;;;2.55;1.15;;;14.60;99.90;;;;;;5092234;28;20115;-59
2023/08/10 05:47:33;;;;;;;3.03;1.13;;;14.70;99.90;;;;;;5073066;28;20083;-59
2023/08/10 05:49:59;;;;;;;3.63;1.70;;;14.70;99.90;;;;;;5092281;28;20059;-59
2023/08/10 05:52:25;;;;;;;4.95;1.10;;;14.70;99.90;;;;;;5073780;28;20044;-59
2023/08/10 05:54:50;;;;;;;6.72;2.20;;;14.80;99.90;;;;;;5073484;28;20038;-59
2023/08/10 05:57:18;;;;;;;3.42;1.50;;;14.80;99.90;;;;;;5088598;28;20036;-60
2023/08/10 05:59:44;;;;;;;5.57;1.92;;;14.90;99.90;;;;;;5064489;28;20659;-59
2023/08/10 06:02:10;;;;;;;11.40;2.30;;;14.90;99.90;;;;;;5066330;28;20123;-59
2023/08/10 06:04:36;;;;;;;3.90;1.85;;;15.00;99.90;;;;;;5068104;28;20496;-59
2023/08/10 06:07:01;;;;;;;4.70;1.98;;;15.10;99.90;;;;;;5088952;28;20093;-59
2023/08/10 06:09:28;;;;;;;5.85;2.50;;;15.10;99.90;;;;;;5069286;28;20079;-59
2023/08/10 06:11:54;;;;;;;9.75;2.80;;;15.30;99.90;;;;;;5082868;28;20048;-59
2023/08/10 06:14:20;;;;;;;5.97;2.28;;;15.30;99.90;;;;;;5068492;28;20090;-60
2023/08/10 06:16:46;;;;;;;5.28;2.08;;;15.50;99.90;;;;;;5061947;28;20036;-60
2023/08/10 06:19:12;;;;;;;5.60;2.20;;;15.60;99.90;;;;;;5060753;28;20085;-60
2023/08/10 06:21:37;;;;;;;3.45;1.70;;;15.80;99.90;;;;;;5073650;28;20442;-60
2023/08/10 06:24:06;;;;;;;3.80;1.60;;;16.00;99.90;;;;;;5057320;28;20031;-62
2023/08/10 06:26:33;;;;;;;3.17;1.20;;;16.10;99.90;;;;;;5093032;28;20135;-61
2023/08/10 06:28:59;;;;;;;2.65;1.20;;;16.20;99.90;;;;;;5085575;28;20393;-61
2023/08/10 06:31:25;;;;;;;1.80;0.75;;;16.30;99.90;;;;;;5062758;28;20048;-62
2023/08/10 06:33:51;;;;;;;1.55;0.85;;;16.50;99.90;;;;;;5092335;28;20075;-62
2023/08/10 06:36:16;;;;;;;9.13;1.38;;;16.60;99.90;;;;;;5073659;28;20035;-62
2023/08/10 06:38:42;;;;;;;8.48;0.93;;;16.70;99.90;;;;;;5057886;28;20048;-61
2023/08/10 06:41:08;;;;;;;3.80;1.30;;;16.70;99.90;;;;;;5073501;28;20380;-62
2023/08/10 06:43:33;;;;;;;1.10;0.60;;;16.70;99.90;;;;;;5073759;28;20048;-61
2023/08/10 06:45:59;;;;;;;7.03;0.70;;;16.70;99.90;;;;;;5073802;28;20729;-62
2023/08/10 06:48:25;;;;;;;3.22;0.82;;;16.80;99.90;;;;;;5073619;28;20842;-62
2023/08/10 06:50:51;;;;;;;3.38;1.02;;;16.80;99.90;;;;;;5073109;28;20397;-62
2023/08/10 06:53:17;;;;;;;1.20;0.50;;;16.80;99.90;;;;;;5074292;28;20087;-62
2023/08/10 06:55:44;;;;;;;1.65;0.70;;;16.90;99.90;;;;;;5073153;28;20051;-62
2023/08/10 06:58:12;;;;;;;5.47;1.98;;;16.90;99.90;;;;;;5073292;28;20558;-61
2023/08/10 07:00:38;;;;;;;0.98;0.70;;;16.90;99.90;;;;;;5073793;28;20504;-61
2023/08/10 07:03:06;;;;;;;1.92;1.08;;;16.90;99.90;;;;;;5072630;28;20083;-62
2023/08/10 07:05:37;;;;;;;3.90;1.30;;;16.90;99.90;;;;;;5092041;28;20186;-61
2023/08/10 07:08:04;;;;;;;6.18;1.75;;;16.80;99.90;;;;;;5092828;28;20392;-60
2023/08/10 07:10:29;;;;;;;8.73;1.80;;;16.90;99.90;;;;;;5091960;28;20578;-61
2023/08/10 07:12:55;;;;;;;4.88;1.60;;;16.80;99.90;;;;;;5073371;28;20036;-61
2023/08/10 07:15:21;;;;;;;5.40;1.55;;;16.80;99.90;;;;;;5073748;28;20047;-61
2023/08/10 07:17:47;;;;;;;3.85;1.27;;;16.80;99.90;;;;;;5073733;28;20040;-61
2023/08/10 07:20:13;;;;;;;5.85;1.42;;;16.80;99.90;;;;;;5073322;28;20074;-61
2023/08/10 07:22:39;;;;;;;5.80;1.77;;;16.80;99.90;;;;;;5073536;28;20071;-61
2023/08/10 07:25:08;;;;;;;5.05;1.65;;;16.80;99.90;;;;;;5072467;28;20104;-61
2023/08/10 07:27:35;;;;;;;6.35;1.27;;;16.80;99.90;;;;;;5090778;28;20066;-62
2023/08/10 07:30:03;;;;;;;6.43;1.45;;;16.80;99.90;;;;;;5074249;28;20082;-61
2023/08/10 07:32:29;;;;;;;4.43;1.40;;;16.80;99.90;;;;;;5090200;28;20040;-61
2023/08/10 07:34:55;;;;;;;7.55;1.80;;;16.80;99.90;;;;;;5073548;28;20044;-61
2023/08/10 07:37:21;;;;;;;4.38;1.63;;;16.80;99.90;;;;;;5073480;28;20093;-61
2023/08/10 07:39:47;;;;;;;3.53;1.42;;;16.90;99.90;;;;;;5072367;28;20036;-61
2023/08/10 07:42:13;;;;;;;5.63;1.17;;;16.90;99.90;;;;;;5073377;28;20062;-61
2023/08/10 07:44:39;;;;;;;4.10;1.52;;;16.90;99.90;;;;;;5073087;28;20046;-61
2023/08/10 07:47:05;;;;;;;4.57;1.55;;;16.90;99.90;;;;;;5072889;28;20459;-62
2023/08/10 07:49:31;;;;;;;3.92;1.70;;;16.90;99.90;;;;;;5072884;28;20043;-61
2023/08/10 07:51:58;;;;;;;5.07;2.08;;;17.00;99.90;;;;;;5091288;28;20044;-61
2023/08/10 07:54:25;;;;;;;3.30;1.20;;;17.00;99.90;;;;;;5072888;28;20388;-61
2023/08/10 07:56:50;;;;;;;4.78;1.95;;;17.00;99.90;;;;;;5072230;28;20078;-62
2023/08/10 07:59:16;;;;;;;6.53;1.30;;;17.10;99.90;;;;;;5091099;28;20064;-61
2023/08/10 08:01:43;;;;;;;7.22;1.75;;;17.10;99.90;;;;;;5090368;28;20103;-61
2023/08/10 08:04:08;;;;;;;4.05;1.83;;;17.10;99.90;;;;;;5089327;28;20065;-62
2023/08/10 08:06:38;;;;;;;6.68;1.63;;;17.20;99.90;;;;;;5091467;28;20040;-61
2023/08/10 08:09:06;;;;;;;4.80;1.33;;;17.20;99.90;;;;;;5090282;28;20504;-61
2023/08/10 08:11:32;;;;;;;6.35;1.67;;;17.30;99.90;;;;;;5090750;28;20040;-61
2023/08/10 08:13:58;;;;;;;3.72;1.40;;;17.30;99.90;;;;;;5073154;28;20040;-59
2023/08/10 08:16:24;;;;;;;2.97;1.25;;;17.40;99.90;;;;;;5072140;28;20097;-60
2023/08/10 08:18:53;;;;;;;4.65;1.40;;;17.40;99.90;;;;;;5090906;28;20035;-60
2023/08/10 08:21:20;;;;;;;4.93;1.35;;;17.50;99.90;;;;;;5072671;28;20044;-60
2023/08/10 08:23:47;;;;;;;4.90;1.40;;;17.50;99.90;;;;;;5071540;28;20508;-60
2023/08/10 08:26:14;;;;;;;7.32;1.50;;;17.50;99.90;;;;;;5072334;28;20039;-60
2023/08/10 08:28:41;;;;;;;5.82;2.42;;;17.50;99.90;;;;;;5046467;28;20031;-60
2023/08/10 08:31:06;;;;;;;5.15;1.80;;;17.60;99.90;;;;;;5091027;28;20032;-60
2023/08/10 08:33:33;;;;;;;7.53;1.95;;;17.60;99.90;;;;;;5072212;28;20566;-59
2023/08/10 08:35:59;;;;;;;4.13;1.08;;;17.60;99.90;;;;;;5090488;28;20097;-60
2023/08/10 08:38:25;;;;;;;5.80;2.10;;;17.60;99.90;;;;;;5071384;28;20052;-60
2023/08/10 08:40:53;;;;;;;4.15;1.52;;;17.60;99.90;;;;;;5056434;28;20428;-60
2023/08/10 08:43:19;;;;;;;6.85;1.52;;;17.70;99.90;;;;;;5072542;28;20135;-60
2023/08/10 08:45:45;;;;;;;7.75;1.65;;;17.80;99.90;;;;;;5090850;28;20116;-60
2023/08/10 08:48:14;;;;;;;5.32;1.40;;;17.90;99.90;;;;;;5055457;28;20428;-60
2023/08/10 08:50:40;;;;;;;6.85;1.85;;;17.90;99.90;;;;;;5054918;28;20039;-60
2023/08/10 08:53:11;;;;;;;4.57;1.35;;;17.90;99.90;;;;;;5072260;28;20040;-60
2023/08/10 08:55:38;;;;;;;13.95;2.08;;;17.90;99.90;;;;;;5055177;28;20118;-60
2023/08/10 08:58:05;;;;;;;4.45;1.50;;;17.80;99.90;;;;;;5089410;28;20728;-60
2023/08/10 09:00:31;;;;;;;5.80;1.38;;;17.80;99.90;;;;;;5072575;28;20032;-60
2023/08/10 09:02:58;;;;;;;5.07;1.70;;;17.80;99.90;;;;;;5071154;28;20854;-60
2023/08/10 09:05:24;;;;;;;4.80;1.48;;;17.70;99.90;;;;;;5071900;28;20048;-60
2023/08/10 09:07:53;;;;;;;5.05;1.35;;;17.70;99.90;;;;;;5039891;28;20093;-60
2023/08/10 09:10:21;;;;;;;6.38;1.50;;;17.60;99.90;;;;;;5067394;28;20048;-60
2023/08/10 09:12:48;;;;;;;5.10;1.90;;;17.60;99.90;;;;;;5057817;28;20114;-60
2023/08/10 09:15:16;;;;;;;5.30;1.50;;;17.60;99.90;;;;;;5052724;28;20793;-60
2023/08/10 09:17:51;;;;;;;4.20;1.40;;;17.50;99.90;;;;;;5071164;28;20088;-60
2023/08/10 09:20:25;;;;;;;3.53;1.30;;;17.50;99.90;;;;;;5071652;28;20067;-60
2023/08/10 09:22:55;;;;;;;3.85;1.60;;;17.50;99.90;;;;;;5071590;28;20431;-60
2023/08/10 09:25:21;;;;;;;5.20;1.27;;;17.50;99.90;;;;;;5070761;28;20094;-60
2023/08/10 09:27:48;;;;;;;6.72;1.73;;;17.50;99.90;;;;;;5071088;28;20892;-60
2023/08/10 09:30:15;;;;;;;5.95;1.73;;;17.50;99.90;;;;;;5071363;28;20060;-60
2023/08/10 09:32:41;;;;;;;10.48;1.88;;;17.50;99.90;;;;;;5070256;28;20048;-60
2023/08/10 09:35:18;;;;;;;5.60;2.10;;;17.50;99.90;;;;;;5089850;28;20085;-60
2023/08/10 09:37:46;;;;;;;7.80;1.92;;;17.50;99.90;;;;;;5088838;28;20063;-60
2023/08/10 09:40:15;;;;;;;3.85;1.85;;;17.50;99.90;;;;;;5070509;28;20130;-60
2023/08/10 09:42:40;;;;;;;5.32;1.90;;;17.50;99.90;;;;;;5070864;28;20515;-60
2023/08/10 09:45:12;;;;;;;6.70;1.83;;;17.60;99.90;;;;;;5071139;28;20040;-60
2023/08/10 09:47:42;;;;;;;6.05;1.70;;;17.70;99.90;;;;;;5070106;28;20097;-60
2023/08/10 09:50:09;;;;;;;5.45;1.80;;;17.80;99.90;;;;;;5088774;28;20051;-60
2023/08/10 09:52:37;;;;;;;7.22;2.17;;;17.90;99.90;;;;;;5062663;28;20052;-60
2023/08/10 09:55:05;;;;;;;5.75;1.80;;;18.00;99.90;;;;;;5059923;28;20043;-60
2023/08/10 09:57:31;;;;;;;6.13;1.95;;;18.20;99.90;;;;;;5057069;28;20064;-60
2023/08/10 09:59:57;;;;;;;4.63;1.77;;;18.20;99.90;;;;;;5069011;28;20040;-60
2023/08/10 10:02:24;;;;;;;7.45;1.98;;;18.30;99.90;;;;;;5080350;28;20051;-60
2023/08/10 10:04:50;;;;;;;7.80;1.90;;;18.40;99.90;;;;;;5069550;28;20746;-60
2023/08/10 10:07:27;;;;;;;6.47;1.92;;;18.50;99.90;;;;;;5058699;28;20134;-60
2023/08/10 10:09:56;;;;;;;4.13;1.63;;;18.60;99.90;;;;;;5070405;28;20077;-60
2023/08/10 10:12:23;;;;;;;6.72;2.08;;;18.70;99.90;;;;;;5054541;28;20040;-60
2023/08/10 10:14:49;;;;;;;4.57;1.60;;;18.70;99.90;;;;;;5070929;28;20744;-60
2023/08/10 10:17:17;;;;;;;5.68;1.92;;;18.80;99.90;;;;;;5071427;28;20101;-60
2023/08/10 10:19:44;;;;;;;6.13;1.77;;;18.80;99.90;;;;;;5054797;28;20044;-61
2023/08/10 10:22:11;;;;;;;6.40;1.55;;;18.80;99.90;;;;;;5069740;28;20044;-61
2023/08/10 10:24:41;;;;;;;4.72;1.13;;;18.80;99.90;;;;;;5054446;28;20051;-61
2023/08/10 10:27:09;;;;;;;4.05;1.50;;;18.80;99.90;;;;;;5080788;28;20036;-61
2023/08/10 10:29:36;;;;;;;5.03;1.80;;;18.80;99.90;;;;;;5064852;28;20051;-60
2023/08/10 10:32:08;;;;;;;5.25;1.52;;;18.80;99.90;;;;;;5070894;28;20052;-61
2023/08/10 10:34:34;;;;;;;4.70;1.55;;;18.90;99.90;;;;;;5088802;28;20048;-61
2023/08/10 10:37:13;;;;;;;6.03;1.67;;;18.90;99.90;;;;;;5088210;28;20145;-61
2023/08/10 10:39:44;;;;;;;6.72;1.92;;;19.00;99.90;;;;;;5071082;28;20040;-60
2023/08/10 10:42:13;;;;;;;5.90;1.95;;;19.00;99.90;;;;;;5070763;28;20122;-61
2023/08/10 10:45:07;;;;;;;7.90;1.88;;;19.00;99.90;;;;;;5086078;28;20115;-61
2023/08/10 10:47:38;;;;;;;4.85;1.60;;;19.10;99.90;;;;;;5070056;28;20537;-61
2023/08/10 10:50:19;;;;;;;8.85;1.80;;;19.00;99.90;;;;;;5070150;28;20105;-61
2023/08/10 10:52:52;;;;;;;6.03;1.90;;;19.10;99.90;;;;;;5070777;28;20040;-61
2023/08/10 10:55:19;;;;;;;4.47;1.70;;;19.00;99.90;;;;;;5067281;28;20117;-60
2023/08/10 10:57:47;;;;;;;5.60;2.25;;;19.00;99.90;;;;;;5055979;28;20046;-61
2023/08/10 11:00:14;;;;;;;4.80;1.77;;;19.00;99.90;;;;;;5073358;28;20505;-61
2023/08/10 11:02:40;;;;;;;7.88;1.83;;;19.00;99.90;;;;;;5075796;28;20040;-61
2023/08/10 11:05:16;;;;;;;5.55;1.70;;;19.00;99.90;;;;;;5075239;28;20036;-61
2023/08/10 11:07:48;;;;;;;5.68;2.25;;;19.00;99.90;;;;;;5076342;28;20040;-61
2023/08/10 11:10:14;;;;;;;9.48;2.33;;;19.00;99.90;;;;;;5060149;28;20044;-61
2023/08/10 11:12:42;;;;;;;5.28;2.10;;;19.10;99.90;;;;;;5059054;28;20431;-62
2023/08/10 11:15:10;;;;;;;4.82;1.80;;;19.10;99.90;;;;;;5076341;28;20032;-61
2023/08/10 11:17:41;;;;;;;5.72;1.90;;;19.20;99.90;;;;;;5076075;28;20093;-61
2023/08/10 11:20:18;;;;;;;4.95;2.22;;;19.10;99.90;;;;;;5076891;28;20040;-61
2023/08/10 11:22:48;;;;;;;4.78;2.20;;;19.10;99.90;;;;;;5095019;28;20109;-61
2023/08/10 11:25:15;;;;;;;8.57;2.53;;;19.10;99.90;;;;;;5075614;28;20052;-61
2023/08/10 11:27:44;;;;;;;6.40;2.10;;;19.00;99.90;;;;;;5094271;28;20040;-61
2023/08/10 11:30:14;;;;;;;6.45;2.20;;;19.00;99.90;;;;;;5074494;28;20058;-61
2023/08/10 11:32:45;;;;;;;8.70;2.80;;;19.00;99.90;;;;;;5075904;28;20540;-61
2023/08/10 11:35:13;;;;;;;8.00;3.40;;;19.00;99.90;;;;;;5076430;28;20129;-61
2023/08/10 11:37:41;;;;;;;9.15;2.95;;;19.00;99.90;;;;;;5094303;28;20054;-61
2023/08/10 11:40:16;;;;;;;6.10;2.90;;;18.90;99.90;;;;;;5058750;28;20047;-61
2023/08/10 11:42:47;;;;;;;7.22;2.90;;;18.90;99.90;;;;;;5076413;28;20500;-60
2023/08/10 11:45:24;;;;;;;7.93;2.97;;;18.80;99.90;;;;;;5076186;28;20036;-60
2023/08/10 11:47:58;;;;;;;6.32;2.92;;;18.80;99.90;;;;;;5075121;28;20060;-60
2023/08/10 11:50:26;;;;;;;12.00;5.13;;;18.80;99.90;;;;;;5059649;28;20472;-61
2023/08/10 11:52:53;;;;;;;9.50;3.08;;;18.80;99.90;;;;;;5093206;28;20396;-60
2023/08/10 11:55:20;;;;;;;5.55;2.58;;;18.70;99.90;;;;;;5075923;28;20115;-60
2023/08/10 11:57:48;;;;;;;7.10;2.45;;;18.70;99.90;;;;;;5094361;28;20036;-60
2023/08/10 12:00:38;;;;;;;6.25;2.22;;;18.60;99.90;;;;;;5075062;28;20047;-60
2023/08/10 12:03:06;;;;;;;8.23;2.17;;;18.60;99.90;;;;;;5094306;28;20089;-60
2023/08/10 12:05:41;;;;;;;5.97;2.35;;;18.60;99.90;;;;;;5075755;28;20565;-60
2023/08/10 12:08:08;;;;;;;;;;;18.60;99.90;;;;;;5075663;28;20142;-60
2023/08/10 12:10:39;;;;;;;6.70;2.10;;;18.60;99.90;;;;;;5075781;28;20002;-60
2023/08/10 12:13:06;;;;;;;6.10;2.53;;;18.50;99.90;;;;;;5075882;28;20075;-60
2023/08/10 12:15:35;;;;;;;6.32;3.28;;;18.50;99.90;;;;;;5074791;28;20040;-60
2023/08/10 12:18:01;;;;;;;7.95;3.42;;;18.50;99.90;;;;;;5075741;28;20061;-60
2023/08/10 12:20:27;;;;;;;7.20;3.05;;;18.60;99.90;;;;;;5075695;28;20115;-60
2023/08/10 12:22:53;;;;;;;7.25;3.10;;;18.60;99.90;;;;;;5058424;28;20043;-60
2023/08/10 12:25:20;;;;;;;8.57;3.25;;;18.60;99.90;;;;;;5075744;28;20397;-60
2023/08/10 12:27:46;;;;;;;7.30;2.88;;;18.60;99.90;;;;;;5058175;28;20039;-60
2023/08/10 12:30:12;;;;;;;5.63;2.60;;;18.50;99.90;;;;;;5058440;28;20040;-60
2023/08/10 12:32:37;;;;;;;7.13;2.30;;;18.50;99.90;;;;;;5075453;28;20385;-60
2023/08/10 12:35:03;;;;;;;7.38;2.80;;;18.60;99.90;;;;;;5074819;28;20040;-60
2023/08/10 12:37:29;;;;;;;5.03;2.38;;;18.50;99.90;;;;;;5093218;28;20590;-61
2023/08/10 12:39:56;;;;;;;8.13;3.08;;;18.50;99.90;;;;;;5093754;28;20044;-60
2023/08/10 12:42:24;;;;;;;5.40;2.47;;;18.50;99.90;;;;;;5092334;28;20036;-60
2023/08/10 12:44:50;;;;;;;6.78;2.20;;;18.60;99.90;;;;;;5093010;28;20051;-60
2023/08/10 12:47:17;;;;;;;6.70;3.10;;;18.50;99.90;;;;;;5074865;28;20068;-61